createdAt,value
2023-04-24T00:01:53.983Z,77.85
2023-04-24T00:04:21.650Z,75.03
2023-04-24T00:06:54.968Z,75.88
2023-04-24T00:09:22.358Z,75.30
2023-04-24T00:11:51.417Z,76.72
2023-04-24T00:14:18.886Z,78.72
2023-04-24T00:16:46.509Z,72.35
2023-04-24T00:19:13.976Z,73.20
2023-04-24T00:21:42.556Z,67.88
2023-04-24T00:24:10.388Z,76.03
2023-04-24T00:26:37.814Z,68.93
2023-04-24T00:29:05.778Z,65.00
2023-04-24T00:31:35.928Z,69.25
2023-04-24T00:34:04.205Z,67.72
2023-04-24T00:36:32.077Z,60.00
2023-04-24T00:38:59.514Z,67.38
2023-04-24T00:41:26.991Z,61.42
2023-04-24T00:43:54.426Z,67.47
2023-04-24T00:46:31.318Z,70.78
2023-04-24T00:49:01.042Z,72.13
2023-04-24T00:51:28.505Z,62.72
2023-04-24T00:53:56.538Z,59.95
2023-04-24T00:56:24.622Z,64.47
2023-04-24T00:58:52.196Z,66.32
2023-04-24T01:01:21.920Z,76.38
2023-04-24T01:03:53.889Z,58.45
2023-04-24T01:06:21.992Z,69.70
2023-04-24T01:08:52.344Z,62.42
2023-04-24T01:11:20.717Z,61.60
2023-04-24T01:13:48.945Z,59.22
2023-04-24T01:16:18.444Z,66.35
2023-04-24T01:18:46.900Z,58.88
2023-04-24T01:21:18.115Z,64.35
2023-04-24T01:23:46.790Z,64.22
2023-04-24T01:26:16.208Z,59.45
2023-04-24T01:28:44.265Z,56.65
2023-04-24T01:31:11.747Z,62.63
2023-04-24T01:33:39.781Z,60.42
2023-04-24T01:36:08.681Z,57.65
2023-04-24T01:38:39.334Z,63.40
2023-04-24T01:41:06.748Z,69.50
2023-04-24T01:43:36.964Z,65.15
2023-04-24T01:46:04.485Z,67.15
2023-04-24T01:48:32.347Z,62.95
2023-04-24T01:51:00.667Z,67.10
2023-04-24T01:53:28.085Z,63.35
2023-04-24T01:55:55.816Z,60.25
2023-04-24T01:58:24.021Z,58.67
2023-04-24T02:00:51.513Z,58.58
2023-04-24T02:03:19.087Z,67.72
2023-04-24T02:05:47.106Z,59.83
2023-04-24T02:08:14.464Z,65.13
2023-04-24T02:10:41.863Z,58.50
2023-04-24T02:13:10.157Z,60.53
2023-04-24T02:15:37.593Z,61.55
2023-04-24T02:18:07.783Z,59.97
2023-04-24T02:20:36.455Z,51.00
2023-04-24T02:23:06.418Z,60.00
2023-04-24T02:25:34.760Z,54.45
2023-04-24T02:28:02.127Z,63.13
2023-04-24T02:30:29.619Z,48.88
2023-04-24T02:32:56.975Z,51.08
2023-04-24T02:35:24.614Z,60.28
2023-04-24T02:37:52.066Z,54.97
2023-04-24T02:40:19.509Z,53.45
2023-04-24T02:42:48.120Z,55.33
2023-04-24T02:45:15.710Z,66.47
2023-04-24T02:47:43.267Z,51.80
2023-04-24T02:50:10.746Z,62.08
2023-04-24T02:52:38.565Z,62.58
2023-04-24T02:55:06.396Z,51.17
2023-04-24T02:57:33.784Z,46.67
2023-04-24T03:00:01.280Z,47.47
2023-04-24T03:02:28.956Z,38.22
2023-04-24T03:04:56.446Z,47.72
2023-04-24T03:07:25.091Z,54.42
2023-04-24T03:09:52.782Z,47.40
2023-04-24T03:12:20.420Z,36.08
2023-04-24T03:14:47.901Z,38.65
2023-04-24T03:17:15.342Z,45.00
2023-04-24T03:19:43.175Z,56.97
2023-04-24T03:22:12.556Z,47.08
2023-04-24T03:24:41.761Z,61.80
2023-04-24T03:27:09.181Z,46.97
2023-04-24T03:29:57.024Z,48.90
2023-04-24T03:32:35.375Z,52.85
2023-04-24T03:35:04.360Z,46.45
2023-04-24T03:37:32.258Z,49.97
2023-04-24T03:40:14.496Z,52.97
2023-04-24T03:42:42.190Z,57.83
2023-04-24T03:45:10.765Z,48.30
2023-04-24T03:47:41.052Z,56.38
2023-04-24T03:50:10.001Z,46.67
2023-04-24T03:52:38.346Z,56.83
2023-04-24T03:55:07.437Z,49.58
2023-04-24T03:57:41.184Z,50.17
2023-04-24T04:00:19.680Z,44.35
2023-04-24T04:02:54.336Z,49.67
2023-04-24T04:07:49.296Z,48.25
2023-04-24T04:10:18.446Z,40.13
2023-04-24T04:12:45.829Z,52.70
2023-04-24T04:15:13.397Z,49.25
2023-04-24T04:17:42.624Z,50.63
2023-04-24T04:20:11.186Z,46.53
2023-04-24T04:22:43.486Z,53.33
2023-04-24T04:25:14.617Z,59.85
2023-04-24T04:27:43.118Z,62.85
2023-04-24T04:30:12.674Z,57.40
2023-04-24T04:32:48.501Z,51.83
2023-04-24T04:35:16.155Z,60.90
2023-04-24T04:37:43.931Z,53.53
2023-04-24T04:40:20.072Z,62.95
2023-04-24T04:42:56.204Z,53.28
2023-04-24T04:45:25.465Z,49.80
2023-04-24T04:48:14.708Z,48.95
2023-04-24T04:50:42.502Z,55.30
2023-04-24T04:53:11.387Z,61.83
2023-04-24T04:55:40.241Z,59.95
2023-04-24T04:58:12.606Z,64.32
2023-04-24T05:00:40.230Z,63.65
2023-04-24T05:03:21.075Z,59.00
2023-04-24T05:05:52.540Z,59.92
2023-04-24T05:08:27.198Z,60.53
2023-04-24T05:10:56.397Z,56.17
2023-04-24T05:13:38.484Z,49.50
2023-04-24T05:16:09.936Z,67.10
2023-04-24T05:18:37.874Z,49.03
2023-04-24T05:21:07.713Z,45.30
2023-04-24T05:23:36.530Z,53.08
2023-04-24T05:26:06.204Z,53.80
2023-04-24T05:28:37.921Z,50.03
2023-04-24T05:31:11.001Z,58.42
2023-04-24T05:33:38.731Z,45.95
2023-04-24T05:36:07.570Z,51.15
2023-04-24T05:38:35.064Z,44.55
2023-04-24T05:41:03.085Z,50.35
2023-04-24T05:43:30.754Z,41.55
2023-04-24T05:45:58.236Z,45.75
2023-04-24T05:48:25.658Z,46.83
2023-04-24T05:50:53.753Z,46.20
2023-04-24T05:53:21.850Z,43.22
2023-04-24T05:55:49.732Z,48.78
2023-04-24T05:58:17.880Z,46.20
2023-04-24T06:00:47.391Z,41.35
2023-04-24T06:03:16.361Z,53.83
2023-04-24T06:05:45.119Z,38.83
2023-04-24T06:08:12.560Z,44.20
2023-04-24T06:10:42.203Z,48.00
2023-04-24T06:13:10.873Z,45.05
2023-04-24T06:15:41.786Z,36.53
2023-04-24T06:18:13.611Z,33.85
2023-04-24T06:20:42.392Z,30.98
2023-04-24T06:23:10.892Z,20.58
2023-04-24T06:25:39.122Z,18.15
2023-04-24T06:28:06.901Z,20.48
2023-04-24T06:30:34.438Z,17.80
2023-04-24T06:33:12.860Z,15.95
2023-04-24T06:35:47.436Z,19.60
2023-04-24T06:38:14.782Z,14.57
2023-04-24T06:40:42.021Z,12.15
2023-04-24T06:43:09.309Z,13.82
2023-04-24T06:45:36.648Z,23.08
2023-04-24T06:48:04.131Z,12.45
2023-04-24T06:50:32.131Z,10.15
2023-04-24T06:52:59.280Z,12.65
2023-04-24T06:55:27.992Z,18.08
2023-04-24T06:57:55.261Z,14.95
2023-04-24T07:00:25.090Z,18.42
2023-04-24T07:02:52.998Z,13.43
2023-04-24T07:05:24.411Z,13.60
2023-04-24T07:07:52.288Z,22.65
2023-04-24T07:10:19.665Z,15.18
2023-04-24T07:12:47.965Z,23.33
2023-04-24T07:15:15.767Z,14.07
2023-04-24T07:17:47.642Z,19.95
2023-04-24T07:20:15.817Z,10.40
2023-04-24T07:22:43.038Z,14.85
2023-04-24T07:25:10.914Z,16.40
2023-04-24T07:27:40.633Z,15.45
2023-04-24T07:30:08.463Z,12.30
2023-04-24T07:32:36.136Z,8.38
2023-04-24T07:35:03.715Z,19.38
2023-04-24T07:37:32.228Z,14.57
2023-04-24T07:39:59.585Z,17.23
2023-04-24T07:42:26.964Z,11.73
2023-04-24T07:44:54.329Z,7.95
2023-04-24T07:47:21.875Z,9.70
2023-04-24T07:49:49.289Z,12.55
2023-04-24T07:52:16.578Z,11.02
2023-04-24T07:54:44.203Z,16.67
2023-04-24T07:57:11.856Z,11.25
2023-04-24T07:59:39.157Z,17.58
2023-04-24T08:02:07.254Z,15.23
2023-04-24T08:04:34.919Z,12.20
2023-04-24T08:07:02.356Z,13.00
2023-04-24T08:09:29.671Z,8.82
2023-04-24T08:11:57.953Z,13.30
2023-04-24T08:14:25.323Z,9.63
2023-04-24T08:16:56.980Z,12.20
2023-04-24T08:19:24.322Z,14.00
2023-04-24T08:21:51.931Z,15.82
2023-04-24T08:24:19.200Z,14.45
2023-04-24T08:26:47.030Z,15.00
2023-04-24T08:29:14.799Z,12.50
2023-04-24T08:31:42.554Z,13.45
2023-04-24T08:34:11.385Z,9.68
2023-04-24T08:36:46.560Z,16.75
2023-04-24T08:39:15.922Z,15.73
2023-04-24T08:41:44.292Z,15.85
2023-04-24T08:44:12.635Z,19.17
2023-04-24T08:46:41.998Z,12.63
2023-04-24T08:49:09.532Z,10.30
2023-04-24T08:51:38.836Z,11.43
2023-04-24T08:54:08.343Z,11.93
2023-04-24T08:56:42.753Z,9.10
2023-04-24T08:59:11.294Z,15.82
2023-04-24T09:01:40.662Z,14.45
2023-04-24T09:04:13.964Z,15.20
2023-04-24T09:06:41.908Z,13.55
2023-04-24T09:09:12.633Z,15.05
2023-04-24T09:11:40.648Z,16.63
2023-04-24T09:14:10.445Z,13.90
2023-04-24T09:16:38.437Z,10.13
2023-04-24T09:19:06.039Z,12.05
2023-04-24T09:21:35.131Z,14.70
2023-04-24T09:24:05.083Z,13.48
2023-04-24T09:26:33.701Z,14.25
2023-04-24T09:29:02.374Z,14.93
2023-04-24T09:31:30.831Z,10.73
2023-04-24T09:34:09.507Z,16.95
2023-04-24T09:36:43.630Z,12.20
2023-04-24T09:39:14.695Z,10.82
2023-04-24T09:42:03.273Z,9.98
2023-04-24T09:44:35.595Z,18.83
2023-04-24T09:47:03.077Z,16.58
2023-04-24T09:49:34.241Z,19.60
2023-04-24T09:52:05.869Z,19.45
2023-04-24T09:54:34.710Z,15.32
2023-04-24T09:57:03.747Z,15.27
2023-04-24T09:59:31.793Z,13.93
2023-04-24T10:02:03.295Z,18.73
2023-04-24T10:04:30.849Z,17.55
2023-04-24T10:06:59.483Z,14.93
2023-04-24T10:09:28.170Z,20.10
2023-04-24T10:11:56.260Z,10.75
2023-04-24T10:14:25.749Z,13.02
2023-04-24T10:16:56.053Z,16.25
2023-04-24T10:19:27.588Z,10.50
2023-04-24T10:21:56.850Z,17.98
2023-04-24T10:24:24.299Z,20.17
2023-04-24T10:26:51.712Z,18.05
2023-04-24T10:29:20.734Z,14.30
2023-04-24T10:31:48.710Z,12.90
2023-04-24T10:34:19.191Z,14.50
2023-04-24T10:36:51.694Z,14.20
2023-04-24T10:39:27.962Z,12.10
2023-04-24T10:41:59.526Z,20.02
2023-04-24T10:44:36.633Z,13.65
2023-04-24T10:47:04.118Z,17.80
2023-04-24T10:49:33.102Z,22.77
2023-04-24T10:52:06.664Z,18.38
2023-04-24T10:54:47.406Z,11.90
2023-04-24T10:57:29.769Z,18.08
2023-04-24T11:00:22.309Z,17.10
2023-04-24T11:02:51.715Z,19.65
2023-04-24T11:05:21.870Z,20.77
2023-04-24T11:08:15.170Z,12.23
2023-04-24T11:10:55.823Z,18.23
2023-04-24T11:13:26.788Z,21.42
2023-04-24T11:16:23.021Z,18.10
2023-04-24T11:19:05.365Z,16.17
2023-04-24T11:21:49.836Z,20.27
2023-04-24T11:24:52.023Z,16.35
2023-04-24T11:27:25.407Z,11.70
2023-04-24T11:30:04.555Z,18.75
2023-04-24T11:32:37.190Z,23.35
2023-04-24T11:35:17.379Z,13.75
2023-04-24T11:40:24.444Z,22.27
2023-04-24T11:42:53.341Z,11.95
2023-04-24T11:45:24.621Z,16.10
2023-04-24T11:47:53.124Z,16.55
2023-04-24T11:50:23.446Z,15.95
2023-04-24T11:52:51.857Z,12.75
2023-04-24T11:55:19.772Z,16.23
2023-04-24T11:57:49.417Z,18.52
2023-04-24T12:00:35.276Z,15.10
2023-04-24T12:03:13.619Z,22.02
2023-04-24T12:05:42.016Z,11.73
2023-04-24T12:08:09.642Z,11.18
2023-04-24T12:10:37.470Z,13.18
2023-04-24T12:13:05.127Z,17.15
2023-04-24T12:15:32.735Z,19.25
2023-04-24T12:18:00.776Z,20.13
2023-04-24T12:20:30.819Z,20.48
2023-04-24T12:22:59.424Z,19.13
2023-04-24T12:25:39.718Z,18.08
2023-04-24T12:28:11.960Z,16.45
2023-04-24T12:30:45.518Z,14.32
2023-04-24T12:33:14.065Z,16.55
2023-04-24T12:35:42.404Z,25.95
2023-04-24T12:38:15.082Z,15.23
2023-04-24T12:40:43.598Z,18.33
2023-04-24T12:43:19.285Z,17.30
2023-04-24T12:45:48.453Z,14.02
2023-04-24T12:48:15.915Z,11.35
2023-04-24T12:50:45.972Z,8.70
2023-04-24T12:53:15.241Z,9.43
2023-04-24T12:55:43.944Z,11.95
2023-04-24T12:58:11.392Z,9.90
2023-04-24T13:00:39.940Z,12.30
2023-04-24T13:03:08.008Z,12.93
2023-04-24T13:05:36.189Z,9.48
2023-04-24T13:08:03.729Z,20.45
2023-04-24T13:10:31.136Z,11.70
2023-04-24T13:12:59.236Z,17.98
2023-04-24T13:15:26.539Z,9.88
2023-04-24T13:17:53.783Z,15.23
2023-04-24T13:20:21.362Z,10.10
2023-04-24T13:22:48.848Z,7.32
2023-04-24T13:25:18.139Z,9.43
2023-04-24T13:27:45.694Z,8.82
2023-04-24T13:30:13.778Z,7.97
2023-04-24T13:32:41.170Z,14.68
2023-04-24T13:35:08.984Z,10.80
2023-04-24T13:37:36.391Z,11.15
2023-04-24T13:40:07.066Z,8.95
2023-04-24T13:42:35.019Z,8.20
2023-04-24T13:45:11.125Z,13.20
2023-04-24T13:47:45.248Z,9.52
2023-04-24T13:50:12.512Z,8.98
2023-04-24T13:52:39.812Z,9.23
2023-04-24T13:55:07.627Z,10.48
2023-04-24T13:57:35.025Z,8.80
2023-04-24T14:00:04.945Z,10.70
2023-04-24T14:02:34.480Z,10.50
2023-04-24T14:05:02.188Z,10.75
2023-04-24T14:07:31.224Z,6.43
2023-04-24T14:09:58.486Z,15.40
2023-04-24T14:12:27.118Z,12.43
2023-04-24T14:14:55.549Z,8.15
2023-04-24T14:17:23.460Z,18.50
2023-04-24T14:19:52.904Z,8.32
2023-04-24T14:22:20.201Z,11.63
2023-04-24T14:24:48.086Z,11.85
2023-04-24T14:27:15.421Z,9.75
2023-04-24T14:29:42.727Z,10.77
2023-04-24T14:32:10.436Z,7.03
2023-04-24T14:34:37.854Z,7.88
2023-04-24T14:37:05.271Z,6.30
2023-04-24T14:39:32.693Z,7.07
2023-04-24T14:42:00.078Z,7.70
2023-04-24T14:44:27.537Z,9.07
2023-04-24T14:46:54.903Z,12.60
2023-04-24T14:49:22.172Z,9.90
2023-04-24T14:51:49.568Z,8.32
2023-04-24T14:54:17.012Z,7.90
2023-04-24T14:56:45.401Z,7.55
2023-04-24T14:59:12.896Z,11.18
2023-04-24T15:01:41.186Z,9.15
2023-04-24T15:04:09.128Z,5.72
2023-04-24T15:06:36.635Z,6.05
2023-04-24T15:09:04.382Z,9.27
2023-04-24T15:11:31.972Z,10.60
2023-04-24T15:13:59.565Z,9.00
2023-04-24T15:16:26.899Z,9.50
2023-04-24T15:18:54.312Z,8.60
2023-04-24T15:21:21.967Z,8.95
2023-04-24T15:23:49.596Z,8.65
2023-04-24T15:26:17.695Z,7.50
2023-04-24T15:28:45.046Z,6.70
2023-04-24T15:31:12.390Z,3.30
2023-04-24T15:33:40.342Z,6.20
2023-04-24T15:36:08.157Z,9.55
2023-04-24T15:38:35.658Z,6.63
2023-04-24T15:41:03.008Z,8.15
2023-04-24T15:43:32.130Z,8.85
2023-04-24T15:45:59.508Z,6.40
2023-04-24T15:48:28.021Z,7.18
2023-04-24T15:50:55.805Z,8.73
2023-04-24T15:53:23.454Z,6.97
2023-04-24T15:55:54.827Z,10.90
2023-04-24T15:58:22.836Z,11.75
2023-04-24T16:00:50.753Z,10.25
2023-04-24T16:03:18.410Z,10.02
2023-04-24T16:05:45.843Z,4.60
2023-04-24T16:08:15.497Z,13.40
2023-04-24T16:10:43.454Z,8.98
2023-04-24T16:13:11.136Z,16.30
2023-04-24T16:15:40.199Z,5.25
2023-04-24T16:18:07.768Z,7.50
2023-04-24T16:20:35.119Z,10.82
2023-04-24T16:23:02.752Z,7.38
2023-04-24T16:25:30.385Z,8.35
2023-04-24T16:27:57.977Z,9.70
2023-04-24T16:30:25.392Z,11.30
2023-04-24T16:32:53.014Z,9.43
2023-04-24T16:35:20.502Z,11.38
2023-04-24T16:37:47.962Z,13.93
2023-04-24T16:40:15.355Z,8.63
2023-04-24T16:42:44.841Z,9.48
2023-04-24T16:45:12.432Z,9.60
2023-04-24T16:47:39.934Z,10.90
2023-04-24T16:50:07.750Z,11.55
2023-04-24T16:52:35.572Z,10.57
2023-04-24T16:55:02.931Z,11.18
2023-04-24T16:57:31.311Z,11.90
2023-04-24T16:59:58.750Z,11.98
2023-04-24T17:02:26.339Z,13.00
2023-04-24T17:04:53.964Z,12.50
2023-04-24T17:07:22.327Z,10.85
2023-04-24T17:09:49.663Z,10.45
2023-04-24T17:12:16.959Z,12.75
2023-04-24T17:14:44.264Z,10.73
2023-04-24T17:17:11.713Z,17.65
2023-04-24T17:19:39.269Z,14.43
2023-04-24T17:22:06.654Z,9.73
2023-04-24T17:24:34.067Z,10.90
2023-04-24T17:27:08.157Z,12.35
2023-04-24T17:29:41.976Z,10.98
2023-04-24T17:32:10.029Z,11.55
2023-04-24T17:34:38.153Z,14.77
2023-04-24T17:37:05.679Z,15.45
2023-04-24T17:39:33.056Z,21.20
2023-04-24T17:42:01.650Z,18.98
2023-04-24T17:44:28.926Z,31.38
2023-04-24T17:46:56.646Z,22.77
2023-04-24T17:49:24.149Z,16.38
2023-04-24T17:51:53.574Z,20.65
2023-04-24T17:54:20.859Z,16.00
2023-04-24T17:56:49.103Z,15.98
2023-04-24T17:59:17.114Z,17.23
2023-04-24T18:01:44.442Z,17.20
2023-04-24T18:04:12.090Z,22.83
2023-04-24T18:06:39.794Z,19.52
2023-04-24T18:09:07.249Z,17.23
2023-04-24T18:11:35.532Z,17.92
2023-04-24T18:14:03.371Z,24.98
2023-04-24T18:16:30.835Z,17.35
2023-04-24T18:18:58.212Z,33.55
2023-04-24T18:21:26.541Z,16.65
2023-04-24T18:23:55.302Z,18.08
2023-04-24T18:26:22.912Z,25.73
2023-04-24T18:28:50.623Z,42.85
2023-04-24T18:31:18.258Z,34.67
2023-04-24T18:33:45.780Z,26.88
2023-04-24T18:36:15.088Z,31.55
2023-04-24T18:38:42.536Z,26.20
2023-04-24T18:41:10.135Z,20.42
2023-04-24T18:43:37.406Z,30.92
2023-04-24T18:46:04.807Z,31.85
2023-04-24T18:48:34.628Z,30.42
2023-04-24T18:51:02.079Z,26.48
2023-04-24T18:53:29.744Z,26.98
2023-04-24T18:55:57.165Z,32.45
2023-04-24T18:58:24.673Z,22.92
2023-04-24T19:00:52.057Z,22.70
2023-04-24T19:03:20.450Z,17.38
2023-04-24T19:05:48.471Z,36.40
2023-04-24T19:08:15.798Z,33.38
2023-04-24T19:10:43.179Z,19.95
2023-04-24T19:13:10.657Z,32.67
2023-04-24T19:15:38.035Z,20.55
2023-04-24T19:18:05.398Z,24.55
2023-04-24T19:20:32.725Z,21.92
2023-04-24T19:23:00.149Z,21.77
2023-04-24T19:25:27.497Z,28.27
2023-04-24T19:27:55.384Z,17.25
2023-04-24T19:30:22.741Z,18.35
2023-04-24T19:32:50.548Z,22.85
2023-04-24T19:35:17.998Z,22.63
2023-04-24T19:37:45.516Z,11.20
2023-04-24T19:40:13.449Z,27.25
2023-04-24T19:42:44.249Z,18.90
2023-04-24T19:45:13.154Z,19.25
2023-04-24T19:47:40.827Z,19.92
2023-04-24T19:50:09.222Z,22.35
2023-04-24T19:52:36.552Z,27.38
2023-04-24T19:55:05.798Z,24.40
2023-04-24T19:57:33.258Z,19.63
2023-04-24T20:00:00.662Z,15.45
2023-04-24T20:02:28.469Z,21.58
2023-04-24T20:04:56.094Z,22.70
2023-04-24T20:07:23.671Z,25.48
2023-04-24T20:09:52.245Z,23.63
2023-04-24T20:12:20.768Z,24.77
2023-04-24T20:14:48.782Z,18.15
2023-04-24T20:17:19.086Z,16.15
2023-04-24T20:19:46.629Z,20.27
2023-04-24T20:22:15.418Z,30.50
2023-04-24T20:24:43.677Z,22.08
2023-04-24T20:27:13.101Z,19.70
2023-04-24T20:29:40.908Z,21.30
2023-04-24T20:32:08.644Z,37.85
2023-04-24T20:34:36.134Z,30.42
2023-04-24T20:37:05.351Z,22.88
2023-04-24T20:39:34.397Z,18.15
2023-04-24T20:42:01.953Z,20.38
2023-04-24T20:44:29.251Z,19.05
2023-04-24T20:46:56.771Z,29.15
2023-04-24T20:49:24.223Z,24.38
2023-04-24T20:51:51.736Z,21.98
2023-04-24T20:54:20.306Z,24.27
2023-04-24T20:56:48.018Z,31.23
2023-04-24T20:59:15.345Z,24.85
2023-04-24T21:01:44.830Z,20.70
2023-04-24T21:04:12.241Z,22.65
2023-04-24T21:06:39.840Z,23.05
2023-04-24T21:09:08.824Z,18.13
2023-04-24T21:11:36.306Z,35.22
2023-04-24T21:14:03.708Z,19.40
2023-04-24T21:16:31.084Z,18.83
2023-04-24T21:18:58.443Z,33.80
2023-04-24T21:21:25.908Z,30.55
2023-04-24T21:23:53.411Z,23.45
2023-04-24T21:26:21.785Z,26.13
2023-04-24T21:28:49.277Z,16.35
2023-04-24T21:31:16.722Z,23.95
2023-04-24T21:33:47.256Z,26.92
2023-04-24T21:36:15.417Z,23.92
2023-04-24T21:38:42.990Z,26.85
2023-04-24T21:41:10.800Z,15.57
2023-04-24T21:43:49.758Z,25.88
2023-04-24T21:46:18.104Z,22.67
2023-04-24T21:48:45.466Z,25.35
2023-04-24T21:51:13.024Z,24.50
2023-04-24T21:53:40.733Z,23.42
2023-04-24T21:56:09.112Z,30.33
2023-04-24T21:58:37.395Z,31.88
2023-04-24T22:01:04.790Z,37.08
2023-04-24T22:03:32.518Z,27.27
2023-04-24T22:06:01.020Z,30.25
2023-04-24T22:08:28.298Z,23.20
2023-04-24T22:10:55.790Z,26.90
2023-04-24T22:13:23.313Z,22.20
2023-04-24T22:15:51.078Z,28.73
2023-04-24T22:18:18.793Z,21.10
2023-04-24T22:20:49.439Z,21.13
2023-04-24T22:23:18.587Z,18.40
2023-04-24T22:25:46.343Z,28.30
2023-04-24T22:28:13.742Z,23.33
2023-04-24T22:30:42.330Z,41.05
2023-04-24T22:33:10.005Z,24.80
2023-04-24T22:35:37.943Z,24.77
2023-04-24T22:38:06.337Z,22.98
2023-04-24T22:40:35.055Z,42.22
2023-04-24T22:43:02.836Z,33.63
2023-04-24T22:45:30.728Z,21.92
2023-04-24T22:47:58.177Z,19.38
2023-04-24T22:50:25.735Z,23.02
2023-04-24T22:52:54.066Z,28.60
2023-04-24T22:55:21.488Z,38.58
2023-04-24T22:57:49.721Z,20.08
2023-04-24T23:00:17.252Z,30.08
2023-04-24T23:02:44.860Z,20.35
2023-04-24T23:05:12.417Z,24.88
2023-04-24T23:07:39.934Z,32.95
2023-04-24T23:10:07.668Z,37.50
2023-04-24T23:12:35.212Z,39.00
2023-04-24T23:15:02.570Z,25.10
2023-04-24T23:17:29.992Z,27.88
2023-04-24T23:19:57.863Z,25.85
2023-04-24T23:22:25.195Z,22.42
2023-04-24T23:24:52.531Z,26.55
2023-04-24T23:27:20.231Z,27.70
2023-04-24T23:29:48.751Z,30.23
2023-04-24T23:32:16.393Z,14.75
2023-04-24T23:34:43.755Z,25.77
2023-04-24T23:37:11.596Z,17.13
2023-04-24T23:39:38.857Z,29.48
2023-04-24T23:42:07.654Z,26.05
2023-04-24T23:44:35.122Z,23.67
2023-04-24T23:47:03.431Z,44.30
2023-04-24T23:49:31.670Z,39.22
2023-04-24T23:51:59.094Z,30.65
2023-04-24T23:54:27.358Z,27.98
2023-04-24T23:56:55.106Z,31.20
2023-04-24T23:59:23.129Z,33.03
